createdAt,value
2022-10-19T00:01:01.957Z,12.15
2022-10-19T00:03:29.232Z,11.07
2022-10-19T00:05:56.359Z,12.68
2022-10-19T00:08:23.419Z,9.98
2022-10-19T00:10:50.514Z,11.20
2022-10-19T00:13:17.671Z,10.93
2022-10-19T00:15:45.250Z,11.93
2022-10-19T00:18:12.322Z,13.70
2022-10-19T00:20:39.396Z,13.90
2022-10-19T00:23:06.465Z,14.88
2022-10-19T00:25:33.538Z,16.90
2022-10-19T00:28:01.116Z,17.90
2022-10-19T00:30:28.169Z,17.92
2022-10-19T00:32:55.318Z,18.98
2022-10-19T00:35:22.472Z,17.83
2022-10-19T00:37:49.544Z,19.30
2022-10-19T00:40:16.627Z,18.17
2022-10-19T00:42:43.706Z,17.80
2022-10-19T00:45:13.717Z,18.17
2022-10-19T00:47:41.379Z,16.63
2022-10-19T00:50:08.957Z,18.30
2022-10-19T00:52:36.513Z,18.83
2022-10-19T00:55:03.906Z,19.25
2022-10-19T00:57:32.225Z,18.60
2022-10-19T01:00:00.247Z,18.05
2022-10-19T01:02:27.507Z,18.83
2022-10-19T01:04:54.714Z,20.60
2022-10-19T01:07:22.174Z,19.73
2022-10-19T01:09:49.227Z,19.88
2022-10-19T01:12:19.091Z,18.42
2022-10-19T01:14:55.543Z,19.65
2022-10-19T01:17:41.441Z,19.23
2022-10-19T01:20:23.949Z,19.02
2022-10-19T01:23:10.821Z,21.23
2022-10-19T01:25:56.127Z,20.88
2022-10-19T01:28:41.958Z,21.17
2022-10-19T01:31:25.250Z,21.45
2022-10-19T01:33:59.929Z,19.45
2022-10-19T01:36:39.626Z,19.45
2022-10-19T01:39:18.791Z,18.25
2022-10-19T01:41:45.883Z,18.85
2022-10-19T01:44:12.917Z,18.20
2022-10-19T01:46:41.676Z,18.10
2022-10-19T01:49:19.826Z,16.98
2022-10-19T01:51:50.217Z,14.77
2022-10-19T01:54:18.622Z,15.25
2022-10-19T01:56:47.777Z,15.02
2022-10-19T01:59:16.048Z,15.77
2022-10-19T02:01:45.255Z,14.30
2022-10-19T02:04:14.678Z,14.00
2022-10-19T02:06:42.101Z,13.77
2022-10-19T02:09:09.261Z,15.68
2022-10-19T02:11:37.896Z,14.95
2022-10-19T02:14:06.822Z,14.20
2022-10-19T02:16:37.471Z,13.93
2022-10-19T02:19:06.247Z,13.75
2022-10-19T02:21:33.356Z,13.00
2022-10-19T02:24:00.470Z,12.98
2022-10-19T02:26:27.843Z,14.45
2022-10-19T02:28:55.818Z,14.50
2022-10-19T02:31:23.157Z,14.65
2022-10-19T02:33:50.271Z,13.45
2022-10-19T02:36:18.070Z,15.18
2022-10-19T02:38:45.298Z,14.32
2022-10-19T02:41:17.265Z,14.90
2022-10-19T02:43:47.807Z,13.07
2022-10-19T02:46:19.822Z,13.90
2022-10-19T02:48:47.391Z,13.90
2022-10-19T02:51:30.955Z,12.93
2022-10-19T02:53:59.927Z,13.68
2022-10-19T02:56:29.802Z,14.98
2022-10-19T02:58:56.920Z,14.45
2022-10-19T03:01:24.055Z,13.95
2022-10-19T03:03:51.137Z,15.38
2022-10-19T03:06:18.266Z,15.95
2022-10-19T03:08:45.355Z,15.75
2022-10-19T03:11:12.410Z,15.85
2022-10-19T03:13:39.514Z,15.07
2022-10-19T03:16:08.556Z,15.93
2022-10-19T03:18:35.680Z,15.15
2022-10-19T03:21:10.390Z,15.07
2022-10-19T03:23:37.879Z,15.57
2022-10-19T03:26:07.603Z,15.48
2022-10-19T03:28:37.160Z,14.43
2022-10-19T03:31:04.282Z,16.00
2022-10-19T03:33:31.382Z,16.85
2022-10-19T03:36:33.850Z,17.55
2022-10-19T03:39:02.758Z,18.33
2022-10-19T03:41:30.803Z,17.23
2022-10-19T03:43:58.303Z,17.75
2022-10-19T03:46:25.485Z,17.48
2022-10-19T03:48:52.856Z,17.27
2022-10-19T03:51:21.171Z,17.73
2022-10-19T03:53:48.352Z,17.48
2022-10-19T03:56:16.275Z,17.20
2022-10-19T03:58:44.377Z,17.95
2022-10-19T04:01:13.146Z,18.30
2022-10-19T04:03:40.536Z,18.67
2022-10-19T04:06:09.013Z,19.20
2022-10-19T04:08:36.509Z,19.50
2022-10-19T04:11:05.472Z,18.70
2022-10-19T04:13:33.621Z,19.60
2022-10-19T04:16:00.726Z,19.30
2022-10-19T04:18:27.815Z,18.60
2022-10-19T04:21:01.479Z,18.33
2022-10-19T04:23:29.598Z,18.50
2022-10-19T04:26:03.862Z,19.83
2022-10-19T04:28:31.009Z,18.05
2022-10-19T04:30:58.147Z,21.75
2022-10-19T04:33:25.227Z,19.48
2022-10-19T04:35:58.214Z,19.70
2022-10-19T04:38:25.391Z,19.23
2022-10-19T04:40:52.674Z,18.73
2022-10-19T04:43:19.775Z,19.48
2022-10-19T04:45:47.016Z,18.42
2022-10-19T04:48:15.152Z,19.55
2022-10-19T04:50:42.474Z,19.17
2022-10-19T04:53:09.639Z,19.17
2022-10-19T04:55:41.131Z,20.17
2022-10-19T04:58:08.278Z,19.00
2022-10-19T05:00:35.883Z,19.27
2022-10-19T05:03:03.020Z,18.85
2022-10-19T05:05:30.167Z,18.25
2022-10-19T05:07:57.231Z,19.85
2022-10-19T05:10:24.320Z,19.38
2022-10-19T05:12:51.380Z,17.90
2022-10-19T05:15:18.682Z,19.00
2022-10-19T05:17:45.775Z,18.95
2022-10-19T05:20:12.873Z,19.40
2022-10-19T05:22:40.268Z,19.63
2022-10-19T05:25:08.003Z,19.52
2022-10-19T05:27:35.400Z,22.83
2022-10-19T05:30:02.605Z,20.45
2022-10-19T05:32:44.236Z,20.20
2022-10-19T05:35:12.397Z,18.90
2022-10-19T05:37:39.514Z,19.25
2022-10-19T05:40:06.956Z,18.35
2022-10-19T05:42:34.035Z,18.17
2022-10-19T05:45:01.108Z,18.35
2022-10-19T05:47:30.280Z,20.23
2022-10-19T05:49:58.282Z,19.58
2022-10-19T05:52:25.350Z,19.65
2022-10-19T05:54:53.967Z,21.73
2022-10-19T05:57:21.063Z,20.70
2022-10-19T05:59:48.199Z,21.40
2022-10-19T06:02:15.291Z,22.40
2022-10-19T06:04:42.383Z,22.10
2022-10-19T06:07:09.481Z,22.95
2022-10-19T06:09:37.147Z,22.90
2022-10-19T06:12:04.319Z,22.95
2022-10-19T06:14:31.420Z,23.52
2022-10-19T06:16:58.495Z,22.65
2022-10-19T06:19:25.686Z,22.67
2022-10-19T06:21:52.745Z,23.17
2022-10-19T06:24:19.827Z,22.85
2022-10-19T06:26:46.996Z,23.55
2022-10-19T06:29:14.139Z,22.88
2022-10-19T06:31:41.299Z,24.45
2022-10-19T06:34:08.488Z,23.00
2022-10-19T06:36:35.667Z,22.48
2022-10-19T06:39:03.143Z,19.48
2022-10-19T06:41:31.199Z,20.95
2022-10-19T06:43:58.397Z,18.98
2022-10-19T06:46:26.306Z,19.55
2022-10-19T06:48:57.939Z,19.05
2022-10-19T06:51:26.061Z,21.70
2022-10-19T06:53:56.595Z,18.70
2022-10-19T06:56:24.658Z,20.52
2022-10-19T06:58:51.888Z,19.58
2022-10-19T07:01:19.215Z,20.75
2022-10-19T07:03:46.406Z,19.55
2022-10-19T07:06:13.838Z,20.33
2022-10-19T07:08:41.759Z,20.70
2022-10-19T07:11:10.145Z,20.25
2022-10-19T07:13:37.287Z,21.20
2022-10-19T07:16:06.760Z,20.92
2022-10-19T07:18:37.255Z,20.10
2022-10-19T07:21:05.980Z,19.52
2022-10-19T07:23:34.063Z,19.70
2022-10-19T07:26:05.283Z,19.38
2022-10-19T07:28:32.543Z,14.70
2022-10-19T07:30:59.675Z,17.15
2022-10-19T07:33:27.467Z,18.20
2022-10-19T07:35:59.549Z,17.45
2022-10-19T07:38:26.648Z,18.42
2022-10-19T07:41:00.377Z,17.73
2022-10-19T07:43:27.480Z,17.40
2022-10-19T07:46:08.597Z,16.73
2022-10-19T07:48:36.017Z,16.15
2022-10-19T07:51:04.483Z,13.88
2022-10-19T07:53:31.669Z,12.85
2022-10-19T07:56:08.870Z,14.13
2022-10-19T07:58:36.620Z,13.45
2022-10-19T08:01:04.468Z,13.18
2022-10-19T08:04:31.352Z,11.35
2022-10-19T08:06:21.842Z,11.55
2022-10-19T08:08:49.700Z,10.35
2022-10-19T08:11:21.318Z,10.05
2022-10-19T08:13:48.780Z,10.50
2022-10-19T08:16:40.242Z,10.77
2022-10-19T08:19:09.159Z,8.75
2022-10-19T08:21:36.937Z,8.70
2022-10-19T08:24:04.760Z,8.38
2022-10-19T08:26:33.497Z,7.28
2022-10-19T08:29:01.330Z,7.88
2022-10-19T08:31:28.472Z,7.75
2022-10-19T08:33:55.639Z,7.55
2022-10-19T08:36:23.014Z,7.80
2022-10-19T08:38:50.740Z,6.53
2022-10-19T08:41:43.905Z,6.82
2022-10-19T08:46:37.959Z,6.70
2022-10-19T08:49:05.073Z,6.45
2022-10-19T08:51:36.133Z,6.07
2022-10-19T08:54:04.839Z,6.40
2022-10-19T08:56:51.380Z,6.20
2022-10-19T08:59:31.191Z,5.93
2022-10-19T09:02:00.383Z,5.13
2022-10-19T09:04:42.354Z,5.97
2022-10-19T09:07:23.537Z,5.97
2022-10-19T09:10:15.749Z,6.60
2022-10-19T09:12:45.370Z,5.13
2022-10-19T09:15:14.265Z,5.15
2022-10-19T09:17:41.388Z,5.00
2022-10-19T09:20:16.418Z,4.93
2022-10-19T09:22:44.478Z,5.00
2022-10-19T09:25:20.270Z,5.65
2022-10-19T09:27:49.052Z,6.22
2022-10-19T09:30:20.618Z,5.40
2022-10-19T09:32:49.291Z,5.53
2022-10-19T09:35:16.344Z,5.30
2022-10-19T09:37:45.593Z,5.40
2022-10-19T09:40:18.326Z,5.78
2022-10-19T09:45:18.367Z,6.00
2022-10-19T09:47:47.326Z,5.15
2022-10-19T09:50:19.293Z,6.07
2022-10-19T09:52:50.334Z,5.83
2022-10-19T09:55:17.399Z,5.45
2022-10-19T09:57:45.572Z,5.95
2022-10-19T10:00:19.695Z,6.13
2022-10-19T10:02:53.991Z,6.38
2022-10-19T10:05:22.766Z,6.50
2022-10-19T10:07:55.271Z,5.75
2022-10-19T10:10:28.163Z,5.70
2022-10-19T10:12:59.056Z,5.68
2022-10-19T10:15:27.933Z,5.35
2022-10-19T10:17:56.191Z,6.22
2022-10-19T10:20:32.275Z,5.47
2022-10-19T10:23:03.351Z,6.32
2022-10-19T10:25:32.625Z,5.30
2022-10-19T10:28:04.524Z,5.10
2022-10-19T10:30:34.555Z,5.87
2022-10-19T10:33:09.375Z,5.15
2022-10-19T10:35:53.508Z,5.82
2022-10-19T10:38:23.258Z,5.65
2022-10-19T10:40:52.184Z,5.07
2022-10-19T10:43:22.047Z,5.45
2022-10-19T10:45:53.131Z,5.55
2022-10-19T10:48:31.206Z,6.10
2022-10-19T10:50:58.853Z,5.60
2022-10-19T10:53:29.041Z,5.43
2022-10-19T10:55:57.138Z,5.50
2022-10-19T10:58:39.563Z,5.30
2022-10-19T11:01:08.290Z,5.30
2022-10-19T11:03:35.896Z,5.30
2022-10-19T11:06:03.191Z,4.40
2022-10-19T11:09:00.059Z,5.82
2022-10-19T11:11:37.898Z,4.90
2022-10-19T11:14:23.442Z,4.78
2022-10-19T11:16:52.223Z,4.45
2022-10-19T11:19:27.306Z,4.85
2022-10-19T11:22:00.265Z,4.95
2022-10-19T11:24:27.341Z,5.78
2022-10-19T11:27:02.295Z,4.78
2022-10-19T11:29:32.185Z,5.38
2022-10-19T11:31:59.459Z,4.85
2022-10-19T11:34:44.931Z,5.45
2022-10-19T11:37:50.189Z,4.85
2022-10-19T11:40:54.155Z,5.57
2022-10-19T11:43:36.775Z,4.57
2022-10-19T11:46:10.147Z,4.40
2022-10-19T11:48:54.998Z,3.88
2022-10-19T11:51:34.251Z,4.07
2022-10-19T11:54:01.329Z,3.72
2022-10-19T11:56:44.727Z,3.92
2022-10-19T11:59:28.631Z,4.47
2022-10-19T12:02:14.528Z,4.38
2022-10-19T12:05:11.005Z,4.90
2022-10-19T12:07:38.182Z,4.63
2022-10-19T12:10:11.435Z,4.22
2022-10-19T12:12:43.786Z,3.92
2022-10-19T12:15:46.740Z,4.22
2022-10-19T12:18:34.062Z,3.67
2022-10-19T12:21:03.247Z,3.80
2022-10-19T12:23:31.154Z,4.10
2022-10-19T12:25:58.937Z,4.05
2022-10-19T12:28:29.577Z,3.60
2022-10-19T12:30:57.381Z,4.00
2022-10-19T12:33:28.105Z,3.55
2022-10-19T12:36:10.902Z,4.00
2022-10-19T12:38:46.120Z,4.18
2022-10-19T12:41:23.533Z,4.30
2022-10-19T12:44:06.859Z,3.65
2022-10-19T12:46:51.285Z,3.70
2022-10-19T12:49:43.962Z,3.88
2022-10-19T12:52:11.614Z,2.92
2022-10-19T12:54:39.918Z,3.90
2022-10-19T12:57:22.911Z,3.83
2022-10-19T12:59:59.700Z,3.70
2022-10-19T13:05:04.059Z,3.17
2022-10-19T13:07:32.486Z,3.17
2022-10-19T13:10:05.402Z,3.63
2022-10-19T13:15:00.962Z,3.78
2022-10-19T13:17:37.329Z,4.07
2022-10-19T13:20:16.612Z,3.58
2022-10-19T13:22:46.740Z,3.50
2022-10-19T13:25:19.724Z,3.72
2022-10-19T13:27:47.921Z,3.50
2022-10-19T13:30:33.566Z,3.65
2022-10-19T13:33:00.655Z,3.75
2022-10-19T13:35:35.242Z,3.70
2022-10-19T13:38:11.415Z,3.47
2022-10-19T13:40:39.591Z,3.40
2022-10-19T13:43:16.834Z,3.20
2022-10-19T13:45:44.812Z,3.53
2022-10-19T13:48:19.335Z,3.45
2022-10-19T13:50:53.619Z,4.25
2022-10-19T13:53:23.842Z,3.70
2022-10-19T13:56:03.991Z,3.50
2022-10-19T13:58:49.603Z,3.33
2022-10-19T14:01:35.058Z,3.42
2022-10-19T14:04:14.627Z,3.10
2022-10-19T14:06:44.343Z,3.60
2022-10-19T14:09:15.130Z,4.03
2022-10-19T14:11:43.623Z,3.38
2022-10-19T14:14:13.702Z,3.42
2022-10-19T14:16:57.224Z,3.60
2022-10-19T14:19:31.519Z,2.97
2022-10-19T14:22:00.613Z,5.38
2022-10-19T14:24:29.355Z,3.83
2022-10-19T14:26:56.991Z,4.28
2022-10-19T14:29:24.101Z,3.38
2022-10-19T14:31:51.234Z,3.63
2022-10-19T14:34:18.338Z,4.07
2022-10-19T14:36:47.236Z,4.00
2022-10-19T14:39:25.175Z,3.80
2022-10-19T14:41:55.650Z,3.88
2022-10-19T14:44:33.450Z,4.00
2022-10-19T14:47:01.771Z,4.05
2022-10-19T14:49:28.906Z,3.80
2022-10-19T14:51:59.730Z,4.22
2022-10-19T14:54:28.916Z,3.75
2022-10-19T14:57:05.996Z,4.35
2022-10-19T14:59:37.113Z,4.13
2022-10-19T15:02:17.822Z,4.75
2022-10-19T15:04:45.035Z,4.30
2022-10-19T15:07:21.400Z,4.65
2022-10-19T15:09:50.739Z,5.07
2022-10-19T15:12:19.423Z,5.97
2022-10-19T15:14:47.051Z,6.32
2022-10-19T15:17:28.082Z,6.32
2022-10-19T15:19:56.094Z,6.57
2022-10-19T15:22:29.015Z,6.40
2022-10-19T15:25:08.201Z,7.43
2022-10-19T15:27:35.496Z,6.45
2022-10-19T15:30:05.814Z,6.55
2022-10-19T15:32:37.375Z,6.20
2022-10-19T15:35:18.030Z,7.53
2022-10-19T15:37:46.093Z,7.10
2022-10-19T15:40:17.866Z,7.45
2022-10-19T15:42:46.870Z,7.00
2022-10-19T15:45:32.573Z,6.97
2022-10-19T15:48:11.868Z,7.30
2022-10-19T15:50:44.061Z,7.38
2022-10-19T15:53:11.160Z,7.20
2022-10-19T15:55:38.206Z,8.07
2022-10-19T15:58:05.336Z,7.70
2022-10-19T16:00:32.721Z,7.60
2022-10-19T16:02:59.867Z,8.20
2022-10-19T16:05:26.950Z,8.20
2022-10-19T16:07:54.451Z,7.72
2022-10-19T16:10:23.000Z,8.48
2022-10-19T16:12:50.082Z,7.93
2022-10-19T16:15:22.350Z,8.48
2022-10-19T16:17:50.874Z,8.88
2022-10-19T16:20:18.315Z,9.10
2022-10-19T16:22:46.377Z,8.82
2022-10-19T16:25:14.179Z,10.27
2022-10-19T16:27:41.306Z,10.27
2022-10-19T16:30:08.917Z,10.30
2022-10-19T16:32:36.119Z,9.88
2022-10-19T16:35:03.256Z,11.00
2022-10-19T16:37:30.448Z,10.48
2022-10-19T16:39:57.631Z,11.52
2022-10-19T16:42:29.636Z,10.23
2022-10-19T16:44:57.722Z,9.98
2022-10-19T16:47:24.839Z,10.25
2022-10-19T16:49:58.189Z,10.45
2022-10-19T16:52:25.312Z,11.25
2022-10-19T16:54:52.420Z,11.63
2022-10-19T16:57:19.716Z,11.82
2022-10-19T16:59:46.888Z,12.25
2022-10-19T17:02:14.437Z,10.23
2022-10-19T17:04:41.594Z,12.07
2022-10-19T17:07:08.690Z,10.32
2022-10-19T17:09:43.430Z,10.70
2022-10-19T17:12:11.469Z,11.30
2022-10-19T17:14:39.755Z,11.23
2022-10-19T17:17:06.949Z,10.60
2022-10-19T17:19:34.149Z,11.13
2022-10-19T17:22:02.854Z,11.65
2022-10-19T17:24:30.254Z,12.25
2022-10-19T17:26:57.495Z,12.70
2022-10-19T17:29:24.721Z,12.25
2022-10-19T17:31:51.876Z,12.77
2022-10-19T17:34:19.184Z,12.23
2022-10-19T17:36:47.124Z,12.68
2022-10-19T17:39:19.008Z,12.90
2022-10-19T17:41:46.985Z,11.73
2022-10-19T17:44:14.239Z,13.45
2022-10-19T17:46:41.362Z,12.88
2022-10-19T17:49:09.764Z,13.32
2022-10-19T17:51:37.317Z,13.35
2022-10-19T17:54:05.766Z,13.02
2022-10-19T17:56:32.946Z,13.05
2022-10-19T17:59:00.240Z,13.23
2022-10-19T18:01:27.682Z,14.35
2022-10-19T18:03:54.845Z,14.77
2022-10-19T18:06:23.704Z,13.57
2022-10-19T18:08:52.455Z,14.13
2022-10-19T18:11:19.538Z,13.48
2022-10-19T18:13:47.085Z,13.05
2022-10-19T18:16:14.151Z,12.95
2022-10-19T18:18:42.682Z,13.77
2022-10-19T18:21:11.468Z,13.02
2022-10-19T18:23:39.124Z,13.38
2022-10-19T18:26:14.399Z,14.05
2022-10-19T18:28:41.607Z,12.88
2022-10-19T18:31:09.225Z,13.63
2022-10-19T18:33:36.692Z,13.50
2022-10-19T18:36:04.503Z,13.57
2022-10-19T18:38:31.797Z,13.18
2022-10-19T18:41:05.962Z,13.55
2022-10-19T18:43:33.131Z,13.82
2022-10-19T18:46:00.628Z,13.48
2022-10-19T18:48:29.062Z,12.38
2022-10-19T18:50:56.637Z,13.60
2022-10-19T18:53:23.723Z,14.50
2022-10-19T18:55:57.983Z,14.05
2022-10-19T18:58:25.520Z,13.02
2022-10-19T19:01:02.725Z,15.82
2022-10-19T19:03:29.866Z,14.00
2022-10-19T19:06:00.700Z,13.95
2022-10-19T19:08:28.522Z,14.02
2022-10-19T19:10:55.926Z,13.52
2022-10-19T19:13:23.164Z,13.05
2022-10-19T19:15:57.594Z,14.32
2022-10-19T19:18:24.680Z,14.52
2022-10-19T19:20:51.893Z,13.77
2022-10-19T19:23:19.098Z,14.00
2022-10-19T19:25:46.325Z,14.15
2022-10-19T19:28:13.458Z,13.50
2022-10-19T19:30:44.244Z,13.75
2022-10-19T19:33:11.776Z,14.02
2022-10-19T19:35:45.746Z,13.30
2022-10-19T19:38:13.987Z,13.25
2022-10-19T19:40:41.904Z,13.57
2022-10-19T19:43:12.415Z,12.82
2022-10-19T19:45:39.791Z,12.05
2022-10-19T19:48:08.016Z,12.25
2022-10-19T19:50:35.423Z,12.07
2022-10-19T19:53:02.860Z,13.57
2022-10-19T19:55:33.093Z,12.27
2022-10-19T19:58:02.390Z,13.75
2022-10-19T20:00:29.779Z,12.80
2022-10-19T20:02:58.039Z,11.85
2022-10-19T20:05:25.396Z,12.13
2022-10-19T20:07:52.762Z,11.80
2022-10-19T20:10:19.938Z,11.20
2022-10-19T20:12:47.771Z,11.70
2022-10-19T20:15:16.251Z,10.80
2022-10-19T20:17:43.410Z,11.40
2022-10-19T20:20:11.389Z,11.38
2022-10-19T20:22:38.895Z,11.70
2022-10-19T20:25:06.344Z,11.95
2022-10-19T20:27:36.681Z,11.05
2022-10-19T20:30:04.543Z,11.75
2022-10-19T20:32:31.711Z,11.98
2022-10-19T20:34:58.913Z,11.63
2022-10-19T20:37:26.532Z,10.98
2022-10-19T20:39:53.633Z,11.68
2022-10-19T20:42:21.661Z,11.07
2022-10-19T20:44:48.836Z,11.35
2022-10-19T20:47:16.119Z,10.77
2022-10-19T20:49:43.185Z,11.02
2022-10-19T20:52:10.257Z,11.02
2022-10-19T20:54:37.601Z,10.30
2022-10-19T20:57:04.684Z,10.43
2022-10-19T20:59:33.258Z,11.10
2022-10-19T21:02:00.433Z,10.32
2022-10-19T21:04:27.598Z,10.77
2022-10-19T21:06:54.699Z,10.65
2022-10-19T21:09:23.158Z,11.50
2022-10-19T21:11:51.258Z,11.27
2022-10-19T21:14:28.072Z,11.15
2022-10-19T21:16:57.033Z,11.02
2022-10-19T21:19:25.354Z,11.20
2022-10-19T21:21:55.378Z,11.85
2022-10-19T21:24:26.464Z,11.18
2022-10-19T21:26:53.836Z,10.85
2022-10-19T21:29:21.133Z,11.98
2022-10-19T21:31:50.891Z,11.05
2022-10-19T21:34:18.991Z,11.73
2022-10-19T21:36:46.285Z,11.82
2022-10-19T21:39:13.416Z,12.00
2022-10-19T21:41:40.484Z,12.10
2022-10-19T21:44:07.618Z,12.35
2022-10-19T21:46:34.697Z,12.02
2022-10-19T21:49:01.823Z,11.27
2022-10-19T21:51:45.446Z,12.50
2022-10-19T21:54:14.183Z,12.55
2022-10-19T21:56:41.289Z,12.23
2022-10-19T21:59:08.368Z,12.00
2022-10-19T22:01:38.673Z,11.55
2022-10-19T22:04:09.973Z,11.82
2022-10-19T22:06:37.184Z,11.35
2022-10-19T22:09:05.822Z,12.88
2022-10-19T22:11:32.962Z,14.05
2022-10-19T22:14:01.018Z,11.90
2022-10-19T22:16:28.689Z,13.85
2022-10-19T22:18:56.384Z,13.85
2022-10-19T22:21:25.378Z,14.15
2022-10-19T22:23:53.466Z,12.10
2022-10-19T22:26:43.882Z,13.50
2022-10-19T22:29:11.004Z,12.40
2022-10-19T22:31:38.490Z,13.18
2022-10-19T22:34:06.837Z,12.73
2022-10-19T22:36:33.900Z,13.98
2022-10-19T22:39:01.036Z,13.68
2022-10-19T22:41:28.173Z,13.23
2022-10-19T22:43:55.234Z,12.40
2022-10-19T22:46:22.322Z,14.45
2022-10-19T22:48:49.401Z,14.23
2022-10-19T22:51:16.495Z,13.20
2022-10-19T22:53:43.575Z,13.57
2022-10-19T22:56:13.957Z,14.00
2022-10-19T22:58:41.041Z,13.30
2022-10-19T23:01:09.409Z,13.32
2022-10-19T23:03:39.234Z,12.55
2022-10-19T23:06:07.351Z,13.30
2022-10-19T23:08:34.449Z,12.85
2022-10-19T23:11:01.543Z,13.43
2022-10-19T23:13:28.726Z,13.02
2022-10-19T23:15:55.877Z,14.48
2022-10-19T23:18:23.011Z,12.27
2022-10-19T23:21:00.577Z,14.40
2022-10-19T23:23:28.182Z,13.80
2022-10-19T23:26:02.445Z,13.70
2022-10-19T23:28:30.097Z,13.27
2022-10-19T23:30:58.613Z,12.48
2022-10-19T23:33:26.650Z,12.32
2022-10-19T23:35:53.766Z,12.60
2022-10-19T23:38:20.899Z,13.00
2022-10-19T23:40:47.971Z,13.32
2022-10-19T23:43:15.066Z,13.77
2022-10-19T23:45:42.134Z,12.48
2022-10-19T23:48:09.212Z,12.90
2022-10-19T23:50:36.311Z,12.90
2022-10-19T23:53:03.422Z,12.50
2022-10-19T23:55:30.512Z,13.13
2022-10-19T23:57:57.618Z,14.02
